sensor_id;sensor_type;location;lat;lon;timestamp;P1;durP1;ratioP1;P2;durP2;ratioP2
74233;SDS011;62591;55.764;37.718;2023-02-01T00:01:48;19.42;;;8.68;;
74233;SDS011;62591;55.764;37.718;2023-02-01T00:04:18;18.33;;;8.73;;
74233;SDS011;62591;55.764;37.718;2023-02-01T00:06:47;16.15;;;8.38;;
74233;SDS011;62591;55.764;37.718;2023-02-01T00:09:16;17.98;;;8.77;;
74233;SDS011;62591;55.764;37.718;2023-02-01T00:11:45;19.73;;;8.48;;
74233;SDS011;62591;55.764;37.718;2023-02-01T00:14:17;16.92;;;8.30;;
74233;SDS011;62591;55.764;37.718;2023-02-01T00:16:48;17.63;;;8.23;;
74233;SDS011;62591;55.764;37.718;2023-02-01T00:19:18;17.88;;;8.30;;
74233;SDS011;62591;55.764;37.718;2023-02-01T00:21:47;17.80;;;8.60;;
74233;SDS011;62591;55.764;37.718;2023-02-01T00:24:15;19.02;;;7.88;;
74233;SDS011;62591;55.764;37.718;2023-02-01T00:26:45;18.17;;;8.57;;
74233;SDS011;62591;55.764;37.718;2023-02-01T00:29:19;17.63;;;8.27;;
74233;SDS011;62591;55.764;37.718;2023-02-01T00:31:49;18.27;;;8.60;;
74233;SDS011;62591;55.764;37.718;2023-02-01T00:34:19;15.65;;;7.82;;
74233;SDS011;62591;55.764;37.718;2023-02-01T00:36:49;15.25;;;8.07;;
74233;SDS011;62591;55.764;37.718;2023-02-01T00:39:18;15.85;;;8.48;;
74233;SDS011;62591;55.764;37.718;2023-02-01T00:41:46;19.02;;;8.98;;
74233;SDS011;62591;55.764;37.718;2023-02-01T00:44:15;19.88;;;8.27;;
74233;SDS011;62591;55.764;37.718;2023-02-01T00:46:45;17.08;;;7.88;;
74233;SDS011;62591;55.764;37.718;2023-02-01T00:49:13;19.98;;;8.85;;
74233;SDS011;62591;55.764;37.718;2023-02-01T00:51:43;17.92;;;8.68;;
74233;SDS011;62591;55.764;37.718;2023-02-01T00:57:11;18.73;;;8.50;;
74233;SDS011;62591;55.764;37.718;2023-02-01T00:59:39;16.42;;;8.23;;
74233;SDS011;62591;55.764;37.718;2023-02-01T01:02:13;17.35;;;8.05;;
74233;SDS011;62591;55.764;37.718;2023-02-01T01:04:42;15.30;;;7.30;;
74233;SDS011;62591;55.764;37.718;2023-02-01T01:07:11;16.95;;;8.07;;
74233;SDS011;62591;55.764;37.718;2023-02-01T01:09:40;16.70;;;7.88;;
74233;SDS011;62591;55.764;37.718;2023-02-01T01:12:10;15.45;;;7.63;;
74233;SDS011;62591;55.764;37.718;2023-02-01T01:14:38;14.85;;;6.80;;
74233;SDS011;62591;55.764;37.718;2023-02-01T01:17:07;14.30;;;6.93;;
74233;SDS011;62591;55.764;37.718;2023-02-01T01:19:37;17.30;;;7.82;;
74233;SDS011;62591;55.764;37.718;2023-02-01T01:22:05;15.60;;;7.38;;
74233;SDS011;62591;55.764;37.718;2023-02-01T01:24:35;16.65;;;8.05;;
74233;SDS011;62591;55.764;37.718;2023-02-01T01:27:03;18.23;;;8.07;;
74233;SDS011;62591;55.764;37.718;2023-02-01T01:29:32;17.73;;;8.40;;
74233;SDS011;62591;55.764;37.718;2023-02-01T01:32:03;17.80;;;7.93;;
74233;SDS011;62591;55.764;37.718;2023-02-01T01:34:32;17.85;;;8.52;;
74233;SDS011;62591;55.764;37.718;2023-02-01T01:37:04;17.13;;;8.05;;
74233;SDS011;62591;55.764;37.718;2023-02-01T01:39:32;16.70;;;7.75;;
74233;SDS011;62591;55.764;37.718;2023-02-01T01:42:01;16.13;;;7.88;;
74233;SDS011;62591;55.764;37.718;2023-02-01T01:47:26;15.93;;;7.40;;
74233;SDS011;62591;55.764;37.718;2023-02-01T01:49:58;15.02;;;7.53;;
74233;SDS011;62591;55.764;37.718;2023-02-01T01:52:30;14.90;;;7.40;;
74233;SDS011;62591;55.764;37.718;2023-02-01T01:55:00;17.05;;;8.10;;
74233;SDS011;62591;55.764;37.718;2023-02-01T01:57:31;14.43;;;7.78;;
74233;SDS011;62591;55.764;37.718;2023-02-01T02:00:04;17.88;;;7.60;;
74233;SDS011;62591;55.764;37.718;2023-02-01T02:02:43;14.55;;;7.28;;
74233;SDS011;62591;55.764;37.718;2023-02-01T02:05:15;15.82;;;6.95;;
74233;SDS011;62591;55.764;37.718;2023-02-01T02:07:49;12.57;;;7.00;;
74233;SDS011;62591;55.764;37.718;2023-02-01T02:10:20;18.17;;;8.25;;
74233;SDS011;62591;55.764;37.718;2023-02-01T02:13:09;15.55;;;7.03;;
74233;SDS011;62591;55.764;37.718;2023-02-01T02:15:39;15.63;;;7.68;;
74233;SDS011;62591;55.764;37.718;2023-02-01T02:18:15;14.85;;;7.93;;
74233;SDS011;62591;55.764;37.718;2023-02-01T02:20:52;15.50;;;7.60;;
74233;SDS011;62591;55.764;37.718;2023-02-01T02:26:56;13.90;;;7.40;;
74233;SDS011;62591;55.764;37.718;2023-02-01T02:30:12;12.98;;;7.15;;
74233;SDS011;62591;55.764;37.718;2023-02-01T02:36:19;14.38;;;7.60;;
74233;SDS011;62591;55.764;37.718;2023-02-01T02:39:02;16.00;;;8.02;;
74233;SDS011;62591;55.764;37.718;2023-02-01T02:41:39;15.07;;;8.05;;
74233;SDS011;62591;55.764;37.718;2023-02-01T02:44:35;15.75;;;7.30;;
74233;SDS011;62591;55.764;37.718;2023-02-01T02:47:31;13.93;;;7.30;;
74233;SDS011;62591;55.764;37.718;2023-02-01T02:50:07;16.85;;;8.00;;
74233;SDS011;62591;55.764;37.718;2023-02-01T02:53:04;16.33;;;7.50;;
74233;SDS011;62591;55.764;37.718;2023-02-01T02:55:57;15.20;;;7.47;;
74233;SDS011;62591;55.764;37.718;2023-02-01T02:58:47;14.25;;;7.07;;
74233;SDS011;62591;55.764;37.718;2023-02-01T03:01:33;14.52;;;7.50;;
74233;SDS011;62591;55.764;37.718;2023-02-01T03:04:20;15.43;;;7.80;;
74233;SDS011;62591;55.764;37.718;2023-02-01T03:06:51;18.50;;;8.40;;
74233;SDS011;62591;55.764;37.718;2023-02-01T03:09:25;17.73;;;8.60;;
74233;SDS011;62591;55.764;37.718;2023-02-01T03:12:00;16.25;;;7.68;;
74233;SDS011;62591;55.764;37.718;2023-02-01T03:14:49;15.63;;;8.30;;
74233;SDS011;62591;55.764;37.718;2023-02-01T03:17:25;19.83;;;7.88;;
74233;SDS011;62591;55.764;37.718;2023-02-01T03:19:59;15.20;;;8.07;;
74233;SDS011;62591;55.764;37.718;2023-02-01T03:22:31;18.42;;;8.40;;
74233;SDS011;62591;55.764;37.718;2023-02-01T03:25:05;15.95;;;8.07;;
74233;SDS011;62591;55.764;37.718;2023-02-01T03:27:40;16.85;;;8.43;;
74233;SDS011;62591;55.764;37.718;2023-02-01T03:30:15;17.13;;;8.40;;
74233;SDS011;62591;55.764;37.718;2023-02-01T03:32:49;18.10;;;8.75;;
74233;SDS011;62591;55.764;37.718;2023-02-01T03:35:33;18.58;;;8.65;;
74233;SDS011;62591;55.764;37.718;2023-02-01T03:38:09;18.60;;;8.50;;
74233;SDS011;62591;55.764;37.718;2023-02-01T03:40:46;16.38;;;8.50;;
74233;SDS011;62591;55.764;37.718;2023-02-01T03:43:22;22.75;;;11.35;;
74233;SDS011;62591;55.764;37.718;2023-02-01T03:45:56;16.42;;;8.35;;
74233;SDS011;62591;55.764;37.718;2023-02-01T03:48:28;17.27;;;8.10;;
74233;SDS011;62591;55.764;37.718;2023-02-01T03:51:00;19.35;;;8.52;;
74233;SDS011;62591;55.764;37.718;2023-02-01T03:53:34;17.27;;;8.52;;
74233;SDS011;62591;55.764;37.718;2023-02-01T03:56:06;16.25;;;8.13;;
74233;SDS011;62591;55.764;37.718;2023-02-01T03:58:38;15.80;;;8.60;;
74233;SDS011;62591;55.764;37.718;2023-02-01T04:01:13;18.13;;;8.52;;
74233;SDS011;62591;55.764;37.718;2023-02-01T04:03:44;15.55;;;8.38;;
74233;SDS011;62591;55.764;37.718;2023-02-01T04:06:15;18.55;;;8.95;;
74233;SDS011;62591;55.764;37.718;2023-02-01T04:08:44;17.35;;;8.45;;
74233;SDS011;62591;55.764;37.718;2023-02-01T04:11:15;18.13;;;7.60;;
74233;SDS011;62591;55.764;37.718;2023-02-01T04:13:43;16.40;;;9.27;;
74233;SDS011;62591;55.764;37.718;2023-02-01T04:16:12;17.50;;;8.18;;
74233;SDS011;62591;55.764;37.718;2023-02-01T04:18:40;19.23;;;8.20;;
74233;SDS011;62591;55.764;37.718;2023-02-01T04:21:13;19.33;;;9.10;;
74233;SDS011;62591;55.764;37.718;2023-02-01T04:23:43;19.13;;;8.98;;
74233;SDS011;62591;55.764;37.718;2023-02-01T04:26:14;18.17;;;8.70;;
74233;SDS011;62591;55.764;37.718;2023-02-01T04:28:44;18.63;;;9.60;;
74233;SDS011;62591;55.764;37.718;2023-02-01T04:31:14;18.23;;;8.93;;
74233;SDS011;62591;55.764;37.718;2023-02-01T04:33:43;20.33;;;9.15;;
74233;SDS011;62591;55.764;37.718;2023-02-01T04:36:14;19.77;;;8.95;;
74233;SDS011;62591;55.764;37.718;2023-02-01T04:38:49;18.00;;;8.82;;
74233;SDS011;62591;55.764;37.718;2023-02-01T04:41:19;19.65;;;9.55;;
74233;SDS011;62591;55.764;37.718;2023-02-01T04:43:50;20.17;;;10.35;;
74233;SDS011;62591;55.764;37.718;2023-02-01T04:46:19;18.45;;;8.60;;
74233;SDS011;62591;55.764;37.718;2023-02-01T04:48:48;19.45;;;8.73;;
74233;SDS011;62591;55.764;37.718;2023-02-01T04:51:17;20.98;;;9.68;;
74233;SDS011;62591;55.764;37.718;2023-02-01T04:53:45;17.70;;;8.13;;
74233;SDS011;62591;55.764;37.718;2023-02-01T04:56:15;19.25;;;9.27;;
74233;SDS011;62591;55.764;37.718;2023-02-01T04:58:45;19.45;;;9.38;;
74233;SDS011;62591;55.764;37.718;2023-02-01T05:01:13;18.52;;;8.77;;
74233;SDS011;62591;55.764;37.718;2023-02-01T05:03:42;19.52;;;8.85;;
74233;SDS011;62591;55.764;37.718;2023-02-01T05:06:11;21.17;;;9.30;;
74233;SDS011;62591;55.764;37.718;2023-02-01T05:08:40;19.63;;;9.32;;
74233;SDS011;62591;55.764;37.718;2023-02-01T05:11:09;21.20;;;9.40;;
74233;SDS011;62591;55.764;37.718;2023-02-01T05:13:59;19.20;;;8.98;;
74233;SDS011;62591;55.764;37.718;2023-02-01T05:16:29;18.13;;;8.98;;
74233;SDS011;62591;55.764;37.718;2023-02-01T05:18:57;20.65;;;9.23;;
74233;SDS011;62591;55.764;37.718;2023-02-01T05:21:26;22.58;;;10.10;;
74233;SDS011;62591;55.764;37.718;2023-02-01T05:24:04;26.65;;;12.63;;
74233;SDS011;62591;55.764;37.718;2023-02-01T05:26:40;18.42;;;9.75;;
74233;SDS011;62591;55.764;37.718;2023-02-01T05:29:11;22.35;;;10.13;;
74233;SDS011;62591;55.764;37.718;2023-02-01T05:31:40;20.58;;;10.32;;
74233;SDS011;62591;55.764;37.718;2023-02-01T05:34:08;25.35;;;10.63;;
74233;SDS011;62591;55.764;37.718;2023-02-01T05:36:37;23.83;;;10.52;;
74233;SDS011;62591;55.764;37.718;2023-02-01T05:39:06;23.20;;;10.90;;
74233;SDS011;62591;55.764;37.718;2023-02-01T05:41:35;23.65;;;10.93;;
74233;SDS011;62591;55.764;37.718;2023-02-01T05:44:04;31.13;;;12.20;;
74233;SDS011;62591;55.764;37.718;2023-02-01T05:46:35;24.50;;;11.52;;
74233;SDS011;62591;55.764;37.718;2023-02-01T05:49:04;24.50;;;10.65;;
74233;SDS011;62591;55.764;37.718;2023-02-01T05:51:35;23.90;;;11.27;;
74233;SDS011;62591;55.764;37.718;2023-02-01T05:54:04;26.75;;;11.32;;
74233;SDS011;62591;55.764;37.718;2023-02-01T05:56:32;26.90;;;11.95;;
74233;SDS011;62591;55.764;37.718;2023-02-01T05:59:01;25.45;;;11.48;;
74233;SDS011;62591;55.764;37.718;2023-02-01T06:01:29;23.63;;;11.38;;
74233;SDS011;62591;55.764;37.718;2023-02-01T06:03:59;26.75;;;13.30;;
74233;SDS011;62591;55.764;37.718;2023-02-01T06:06:28;22.75;;;11.20;;
74233;SDS011;62591;55.764;37.718;2023-02-01T06:08:57;24.25;;;11.55;;
74233;SDS011;62591;55.764;37.718;2023-02-01T06:11:26;29.63;;;12.68;;
74233;SDS011;62591;55.764;37.718;2023-02-01T06:13:58;29.13;;;12.05;;
74233;SDS011;62591;55.764;37.718;2023-02-01T06:16:27;34.38;;;11.93;;
74233;SDS011;62591;55.764;37.718;2023-02-01T06:18:55;25.13;;;11.75;;
74233;SDS011;62591;55.764;37.718;2023-02-01T06:21:26;24.45;;;11.10;;
74233;SDS011;62591;55.764;37.718;2023-02-01T06:23:54;25.73;;;11.10;;
74233;SDS011;62591;55.764;37.718;2023-02-01T06:26:24;23.27;;;11.63;;
74233;SDS011;62591;55.764;37.718;2023-02-01T06:28:55;24.75;;;10.85;;
74233;SDS011;62591;55.764;37.718;2023-02-01T06:31:24;27.38;;;12.15;;
74233;SDS011;62591;55.764;37.718;2023-02-01T06:33:53;29.42;;;12.13;;
74233;SDS011;62591;55.764;37.718;2023-02-01T06:36:21;29.55;;;12.40;;
74233;SDS011;62591;55.764;37.718;2023-02-01T06:38:51;26.85;;;12.13;;
74233;SDS011;62591;55.764;37.718;2023-02-01T06:41:20;30.63;;;13.05;;
74233;SDS011;62591;55.764;37.718;2023-02-01T06:43:48;30.23;;;12.73;;
74233;SDS011;62591;55.764;37.718;2023-02-01T06:46:17;25.40;;;11.88;;
74233;SDS011;62591;55.764;37.718;2023-02-01T06:48:46;31.20;;;12.95;;
74233;SDS011;62591;55.764;37.718;2023-02-01T06:51:22;31.02;;;13.07;;
74233;SDS011;62591;55.764;37.718;2023-02-01T06:53:53;30.02;;;12.50;;
74233;SDS011;62591;55.764;37.718;2023-02-01T06:56:22;28.95;;;12.13;;
74233;SDS011;62591;55.764;37.718;2023-02-01T06:58:51;25.15;;;12.32;;
74233;SDS011;62591;55.764;37.718;2023-02-01T07:01:20;30.02;;;13.02;;
74233;SDS011;62591;55.764;37.718;2023-02-01T07:03:49;31.63;;;13.52;;
74233;SDS011;62591;55.764;37.718;2023-02-01T07:06:18;28.70;;;13.88;;
74233;SDS011;62591;55.764;37.718;2023-02-01T07:08:50;31.52;;;13.30;;
74233;SDS011;62591;55.764;37.718;2023-02-01T07:11:32;29.10;;;14.35;;
74233;SDS011;62591;55.764;37.718;2023-02-01T07:14:00;30.58;;;13.45;;
74233;SDS011;62591;55.764;37.718;2023-02-01T07:16:29;29.90;;;12.50;;
74233;SDS011;62591;55.764;37.718;2023-02-01T07:18:57;27.55;;;13.55;;
74233;SDS011;62591;55.764;37.718;2023-02-01T07:21:26;29.65;;;12.88;;
74233;SDS011;62591;55.764;37.718;2023-02-01T07:23:55;37.65;;;18.48;;
74233;SDS011;62591;55.764;37.718;2023-02-01T07:26:24;31.75;;;14.18;;
74233;SDS011;62591;55.764;37.718;2023-02-01T07:28:54;33.60;;;13.27;;
74233;SDS011;62591;55.764;37.718;2023-02-01T07:31:22;30.95;;;14.30;;
74233;SDS011;62591;55.764;37.718;2023-02-01T07:33:53;29.45;;;13.95;;
74233;SDS011;62591;55.764;37.718;2023-02-01T07:36:23;33.90;;;14.60;;
74233;SDS011;62591;55.764;37.718;2023-02-01T07:38:52;30.42;;;14.32;;
74233;SDS011;62591;55.764;37.718;2023-02-01T07:41:24;31.10;;;13.88;;
74233;SDS011;62591;55.764;37.718;2023-02-01T07:43:54;31.42;;;13.18;;
74233;SDS011;62591;55.764;37.718;2023-02-01T07:46:23;32.97;;;13.93;;
74233;SDS011;62591;55.764;37.718;2023-02-01T07:48:53;31.58;;;14.20;;
74233;SDS011;62591;55.764;37.718;2023-02-01T07:51:22;33.90;;;14.45;;
74233;SDS011;62591;55.764;37.718;2023-02-01T07:53:50;33.58;;;15.18;;
74233;SDS011;62591;55.764;37.718;2023-02-01T07:56:21;32.78;;;14.20;;
74233;SDS011;62591;55.764;37.718;2023-02-01T07:58:52;29.95;;;15.13;;
74233;SDS011;62591;55.764;37.718;2023-02-01T08:01:24;30.75;;;13.85;;
74233;SDS011;62591;55.764;37.718;2023-02-01T08:03:55;29.77;;;13.68;;
74233;SDS011;62591;55.764;37.718;2023-02-01T08:06:25;31.92;;;13.98;;
74233;SDS011;62591;55.764;37.718;2023-02-01T08:08:55;31.40;;;14.50;;
74233;SDS011;62591;55.764;37.718;2023-02-01T08:11:24;30.85;;;13.88;;
74233;SDS011;62591;55.764;37.718;2023-02-01T08:13:53;28.88;;;13.45;;
74233;SDS011;62591;55.764;37.718;2023-02-01T08:16:24;31.45;;;14.18;;
74233;SDS011;62591;55.764;37.718;2023-02-01T08:18:52;27.58;;;13.00;;
74233;SDS011;62591;55.764;37.718;2023-02-01T08:21:22;27.20;;;12.52;;
74233;SDS011;62591;55.764;37.718;2023-02-01T08:23:52;29.23;;;13.10;;
74233;SDS011;62591;55.764;37.718;2023-02-01T08:26:23;29.05;;;13.35;;
74233;SDS011;62591;55.764;37.718;2023-02-01T08:28:54;30.08;;;13.82;;
74233;SDS011;62591;55.764;37.718;2023-02-01T08:31:27;28.45;;;13.02;;
74233;SDS011;62591;55.764;37.718;2023-02-01T08:33:57;25.52;;;12.50;;
74233;SDS011;62591;55.764;37.718;2023-02-01T08:36:28;25.17;;;12.98;;
74233;SDS011;62591;55.764;37.718;2023-02-01T08:38:57;29.65;;;12.85;;
74233;SDS011;62591;55.764;37.718;2023-02-01T08:41:27;29.23;;;12.27;;
74233;SDS011;62591;55.764;37.718;2023-02-01T08:43:56;29.95;;;13.60;;
74233;SDS011;62591;55.764;37.718;2023-02-01T08:46:27;33.85;;;13.60;;
74233;SDS011;62591;55.764;37.718;2023-02-01T08:48:55;30.63;;;12.98;;
74233;SDS011;62591;55.764;37.718;2023-02-01T08:51:24;29.15;;;13.27;;
74233;SDS011;62591;55.764;37.718;2023-02-01T08:53:53;34.58;;;16.48;;
74233;SDS011;62591;55.764;37.718;2023-02-01T08:56:21;26.75;;;12.25;;
74233;SDS011;62591;55.764;37.718;2023-02-01T08:58:51;24.67;;;12.60;;
74233;SDS011;62591;55.764;37.718;2023-02-01T09:01:21;29.23;;;12.38;;
74233;SDS011;62591;55.764;37.718;2023-02-01T09:03:51;26.35;;;12.32;;
74233;SDS011;62591;55.764;37.718;2023-02-01T09:06:19;26.83;;;12.05;;
74233;SDS011;62591;55.764;37.718;2023-02-01T09:08:49;25.90;;;12.25;;
74233;SDS011;62591;55.764;37.718;2023-02-01T09:11:18;24.25;;;11.73;;
74233;SDS011;62591;55.764;37.718;2023-02-01T09:13:47;24.00;;;11.20;;
74233;SDS011;62591;55.764;37.718;2023-02-01T09:16:17;25.65;;;11.68;;
74233;SDS011;62591;55.764;37.718;2023-02-01T09:18:54;22.92;;;11.80;;
74233;SDS011;62591;55.764;37.718;2023-02-01T09:21:42;22.75;;;10.68;;
74233;SDS011;62591;55.764;37.718;2023-02-01T09:24:12;23.13;;;11.23;;
74233;SDS011;62591;55.764;37.718;2023-02-01T09:26:41;22.20;;;11.13;;
74233;SDS011;62591;55.764;37.718;2023-02-01T09:29:09;21.30;;;10.15;;
74233;SDS011;62591;55.764;37.718;2023-02-01T09:31:38;22.83;;;10.82;;
74233;SDS011;62591;55.764;37.718;2023-02-01T09:34:20;23.27;;;11.05;;
74233;SDS011;62591;55.764;37.718;2023-02-01T09:36:49;25.23;;;11.20;;
74233;SDS011;62591;55.764;37.718;2023-02-01T09:39:21;25.63;;;12.52;;
74233;SDS011;62591;55.764;37.718;2023-02-01T09:41:52;26.88;;;12.95;;
74233;SDS011;62591;55.764;37.718;2023-02-01T09:44:31;24.13;;;12.15;;
74233;SDS011;62591;55.764;37.718;2023-02-01T09:47:13;23.17;;;11.75;;
74233;SDS011;62591;55.764;37.718;2023-02-01T09:49:48;23.77;;;12.43;;
74233;SDS011;62591;55.764;37.718;2023-02-01T09:52:24;27.02;;;12.00;;
74233;SDS011;62591;55.764;37.718;2023-02-01T09:55:00;28.00;;;13.07;;
74233;SDS011;62591;55.764;37.718;2023-02-01T09:57:38;31.92;;;14.48;;
74233;SDS011;62591;55.764;37.718;2023-02-01T10:00:14;27.45;;;14.30;;
74233;SDS011;62591;55.764;37.718;2023-02-01T10:02:49;28.10;;;13.00;;
74233;SDS011;62591;55.764;37.718;2023-02-01T10:05:21;29.63;;;14.98;;
74233;SDS011;62591;55.764;37.718;2023-02-01T10:08:08;30.30;;;13.73;;
74233;SDS011;62591;55.764;37.718;2023-02-01T10:10:44;29.75;;;14.43;;
74233;SDS011;62591;55.764;37.718;2023-02-01T10:13:23;30.48;;;14.93;;
74233;SDS011;62591;55.764;37.718;2023-02-01T10:18:57;33.47;;;15.10;;
74233;SDS011;62591;55.764;37.718;2023-02-01T10:21:45;30.80;;;15.23;;
74233;SDS011;62591;55.764;37.718;2023-02-01T10:27:22;41.70;;;22.67;;
74233;SDS011;62591;55.764;37.718;2023-02-01T10:29:58;61.10;;;37.05;;
74233;SDS011;62591;55.764;37.718;2023-02-01T10:32:29;57.00;;;30.90;;
74233;SDS011;62591;55.764;37.718;2023-02-01T10:35:04;42.35;;;25.02;;
74233;SDS011;62591;55.764;37.718;2023-02-01T10:37:42;37.80;;;21.42;;
74233;SDS011;62591;55.764;37.718;2023-02-01T10:40:18;40.63;;;21.23;;
74233;SDS011;62591;55.764;37.718;2023-02-01T10:42:51;37.78;;;20.00;;
74233;SDS011;62591;55.764;37.718;2023-02-01T10:45:22;32.17;;;17.40;;
74233;SDS011;62591;55.764;37.718;2023-02-01T10:47:55;35.22;;;16.88;;
74233;SDS011;62591;55.764;37.718;2023-02-01T10:50:30;30.20;;;15.48;;
74233;SDS011;62591;55.764;37.718;2023-02-01T10:53:09;32.67;;;15.45;;
74233;SDS011;62591;55.764;37.718;2023-02-01T10:55:43;29.38;;;14.32;;
74233;SDS011;62591;55.764;37.718;2023-02-01T10:58:16;29.30;;;15.10;;
74233;SDS011;62591;55.764;37.718;2023-02-01T11:00:49;30.88;;;15.52;;
74233;SDS011;62591;55.764;37.718;2023-02-01T11:06:28;30.05;;;14.32;;
74233;SDS011;62591;55.764;37.718;2023-02-01T11:09:09;33.42;;;15.57;;
74233;SDS011;62591;55.764;37.718;2023-02-01T11:11:54;28.55;;;13.68;;
74233;SDS011;62591;55.764;37.718;2023-02-01T11:14:27;29.83;;;14.52;;
74233;SDS011;62591;55.764;37.718;2023-02-01T11:17:16;34.67;;;18.17;;
74233;SDS011;62591;55.764;37.718;2023-02-01T11:19:58;30.33;;;15.88;;
74233;SDS011;62591;55.764;37.718;2023-02-01T11:22:30;30.27;;;15.50;;
74233;SDS011;62591;55.764;37.718;2023-02-01T11:25:01;30.33;;;15.82;;
74233;SDS011;62591;55.764;37.718;2023-02-01T11:27:38;29.20;;;15.00;;
74233;SDS011;62591;55.764;37.718;2023-02-01T11:30:25;32.70;;;15.70;;
74233;SDS011;62591;55.764;37.718;2023-02-01T11:33:00;32.40;;;15.75;;
74233;SDS011;62591;55.764;37.718;2023-02-01T11:35:32;29.65;;;15.23;;
74233;SDS011;62591;55.764;37.718;2023-02-01T11:38:11;27.75;;;14.30;;
74233;SDS011;62591;55.764;37.718;2023-02-01T11:40:49;27.80;;;15.02;;
74233;SDS011;62591;55.764;37.718;2023-02-01T11:43:22;30.40;;;15.13;;
74233;SDS011;62591;55.764;37.718;2023-02-01T11:45:56;27.80;;;14.68;;
74233;SDS011;62591;55.764;37.718;2023-02-01T11:51:04;28.08;;;13.98;;
74233;SDS011;62591;55.764;37.718;2023-02-01T11:54:01;29.73;;;14.43;;
74233;SDS011;62591;55.764;37.718;2023-02-01T11:56:45;28.33;;;14.88;;
74233;SDS011;62591;55.764;37.718;2023-02-01T11:59:27;28.67;;;12.98;;
74233;SDS011;62591;55.764;37.718;2023-02-01T12:02:20;25.92;;;13.32;;
74233;SDS011;62591;55.764;37.718;2023-02-01T12:05:14;26.98;;;13.43;;
74233;SDS011;62591;55.764;37.718;2023-02-01T12:08:06;29.20;;;12.82;;
74233;SDS011;62591;55.764;37.718;2023-02-01T12:10:46;27.13;;;12.48;;
74233;SDS011;62591;55.764;37.718;2023-02-01T12:13:27;22.63;;;12.40;;
74233;SDS011;62591;55.764;37.718;2023-02-01T12:16:11;24.58;;;13.13;;
74233;SDS011;62591;55.764;37.718;2023-02-01T12:18:56;29.33;;;16.45;;
74233;SDS011;62591;55.764;37.718;2023-02-01T12:24:33;24.90;;;13.30;;
74233;SDS011;62591;55.764;37.718;2023-02-01T12:27:21;28.20;;;12.68;;
74233;SDS011;62591;55.764;37.718;2023-02-01T12:30:17;24.98;;;13.15;;
74233;SDS011;62591;55.764;37.718;2023-02-01T12:32:59;26.35;;;12.88;;
74233;SDS011;62591;55.764;37.718;2023-02-01T12:35:38;27.60;;;12.80;;
74233;SDS011;62591;55.764;37.718;2023-02-01T12:38:30;22.42;;;10.93;;
74233;SDS011;62591;55.764;37.718;2023-02-01T12:41:19;25.30;;;11.48;;
74233;SDS011;62591;55.764;37.718;2023-02-01T12:44:07;23.48;;;12.85;;
74233;SDS011;62591;55.764;37.718;2023-02-01T12:46:43;23.73;;;11.00;;
74233;SDS011;62591;55.764;37.718;2023-02-01T12:49:15;20.08;;;10.00;;
74233;SDS011;62591;55.764;37.718;2023-02-01T12:51:52;16.67;;;8.77;;
74233;SDS011;62591;55.764;37.718;2023-02-01T12:54:32;17.33;;;9.27;;
74233;SDS011;62591;55.764;37.718;2023-02-01T12:57:05;18.60;;;8.93;;
74233;SDS011;62591;55.764;37.718;2023-02-01T12:59:39;16.13;;;8.27;;
74233;SDS011;62591;55.764;37.718;2023-02-01T13:02:14;18.75;;;9.25;;
74233;SDS011;62591;55.764;37.718;2023-02-01T13:04:51;18.10;;;8.65;;
74233;SDS011;62591;55.764;37.718;2023-02-01T13:07:34;17.83;;;8.65;;
74233;SDS011;62591;55.764;37.718;2023-02-01T13:10:11;17.77;;;9.00;;
74233;SDS011;62591;55.764;37.718;2023-02-01T13:12:44;21.40;;;9.82;;
74233;SDS011;62591;55.764;37.718;2023-02-01T13:15:24;17.38;;;9.25;;
74233;SDS011;62591;55.764;37.718;2023-02-01T13:18:00;17.75;;;8.73;;
74233;SDS011;62591;55.764;37.718;2023-02-01T13:20:31;20.13;;;9.15;;
74233;SDS011;62591;55.764;37.718;2023-02-01T13:23:05;20.45;;;9.65;;
74233;SDS011;62591;55.764;37.718;2023-02-01T13:25:43;20.70;;;10.80;;
74233;SDS011;62591;55.764;37.718;2023-02-01T13:28:16;24.20;;;13.30;;
74233;SDS011;62591;55.764;37.718;2023-02-01T13:30:55;24.60;;;11.82;;
74233;SDS011;62591;55.764;37.718;2023-02-01T13:33:44;21.48;;;9.95;;
74233;SDS011;62591;55.764;37.718;2023-02-01T13:42:20;38.20;;;23.95;;
74233;SDS011;62591;55.764;37.718;2023-02-01T13:44:55;38.13;;;25.17;;
74233;SDS011;62591;55.764;37.718;2023-02-01T13:47:28;30.17;;;18.42;;
74233;SDS011;62591;55.764;37.718;2023-02-01T13:50:01;29.58;;;14.57;;
74233;SDS011;62591;55.764;37.718;2023-02-01T13:52:40;21.58;;;10.77;;
74233;SDS011;62591;55.764;37.718;2023-02-01T13:55:26;25.20;;;12.00;;
74233;SDS011;62591;55.764;37.718;2023-02-01T13:58:05;23.13;;;11.50;;
74233;SDS011;62591;55.764;37.718;2023-02-01T14:00:42;23.42;;;11.95;;
74233;SDS011;62591;55.764;37.718;2023-02-01T14:03:18;22.60;;;11.52;;
74233;SDS011;62591;55.764;37.718;2023-02-01T14:06:01;23.10;;;11.20;;
74233;SDS011;62591;55.764;37.718;2023-02-01T14:08:46;26.45;;;11.52;;
74233;SDS011;62591;55.764;37.718;2023-02-01T14:11:34;24.08;;;11.75;;
74233;SDS011;62591;55.764;37.718;2023-02-01T14:26:18;22.35;;;10.25;;
74233;SDS011;62591;55.764;37.718;2023-02-01T14:28:51;19.38;;;9.68;;
74233;SDS011;62591;55.764;37.718;2023-02-01T14:32:51;17.73;;;9.07;;
74233;SDS011;62591;55.764;37.718;2023-02-01T14:35:21;20.88;;;9.75;;
74233;SDS011;62591;55.764;37.718;2023-02-01T14:37:54;19.92;;;9.02;;
74233;SDS011;62591;55.764;37.718;2023-02-01T14:40:30;20.23;;;10.38;;
74233;SDS011;62591;55.764;37.718;2023-02-01T14:43:01;16.85;;;8.52;;
74233;SDS011;62591;55.764;37.718;2023-02-01T14:45:48;20.17;;;9.52;;
74233;SDS011;62591;55.764;37.718;2023-02-01T14:51:15;22.88;;;9.30;;
74233;SDS011;62591;55.764;37.718;2023-02-01T14:53:46;21.10;;;10.30;;
74233;SDS011;62591;55.764;37.718;2023-02-01T14:56:18;19.27;;;9.35;;
74233;SDS011;62591;55.764;37.718;2023-02-01T14:58:50;23.27;;;12.13;;
74233;SDS011;62591;55.764;37.718;2023-02-01T15:01:46;19.90;;;9.63;;
74233;SDS011;62591;55.764;37.718;2023-02-01T15:04:19;20.17;;;9.80;;
74233;SDS011;62591;55.764;37.718;2023-02-01T15:06:49;20.33;;;9.48;;
74233;SDS011;62591;55.764;37.718;2023-02-01T15:09:24;19.42;;;9.50;;
74233;SDS011;62591;55.764;37.718;2023-02-01T15:11:58;22.30;;;10.52;;
74233;SDS011;62591;55.764;37.718;2023-02-01T15:14:30;19.25;;;9.82;;
74233;SDS011;62591;55.764;37.718;2023-02-01T15:17:01;19.52;;;9.82;;
74233;SDS011;62591;55.764;37.718;2023-02-01T15:19:29;19.50;;;9.18;;
74233;SDS011;62591;55.764;37.718;2023-02-01T15:21:59;19.77;;;9.75;;
74233;SDS011;62591;55.764;37.718;2023-02-01T15:24:29;27.05;;;11.25;;
74233;SDS011;62591;55.764;37.718;2023-02-01T15:27:04;20.33;;;9.27;;
74233;SDS011;62591;55.764;37.718;2023-02-01T15:29:33;23.65;;;10.27;;
74233;SDS011;62591;55.764;37.718;2023-02-01T15:32:02;20.10;;;10.23;;
74233;SDS011;62591;55.764;37.718;2023-02-01T15:34:45;19.85;;;10.02;;
74233;SDS011;62591;55.764;37.718;2023-02-01T15:37:16;25.13;;;11.30;;
74233;SDS011;62591;55.764;37.718;2023-02-01T15:42:51;24.85;;;10.35;;
74233;SDS011;62591;55.764;37.718;2023-02-01T15:45:22;23.25;;;10.90;;